sensor_id;sensor_type;location;lat;lon;timestamp;P1;durP1;ratioP1;P2;durP2;ratioP2
56680;SDS011;42558;52.388;13.390;2022-10-22T00:00:26;20.14;;;14.25;;
56680;SDS011;42558;52.388;13.390;2022-10-22T00:02:56;26.22;;;15.77;;
56680;SDS011;42558;52.388;13.390;2022-10-22T00:05:26;21.28;;;14.44;;
56680;SDS011;42558;52.388;13.390;2022-10-22T00:07:56;23.56;;;15.39;;
56680;SDS011;42558;52.388;13.390;2022-10-22T00:10:26;24.13;;;15.77;;
56680;SDS011;42558;52.388;13.390;2022-10-22T00:12:56;23.37;;;16.15;;
56680;SDS011;42558;52.388;13.390;2022-10-22T00:15:26;20.90;;;14.25;;
56680;SDS011;42558;52.388;13.390;2022-10-22T00:17:56;23.18;;;14.63;;
56680;SDS011;42558;52.388;13.390;2022-10-22T00:20:25;23.56;;;14.82;;
56680;SDS011;42558;52.388;13.390;2022-10-22T00:22:55;22.99;;;15.39;;
56680;SDS011;42558;52.388;13.390;2022-10-22T00:25:25;20.33;;;14.63;;
56680;SDS011;42558;52.388;13.390;2022-10-22T00:27:55;24.51;;;14.63;;
56680;SDS011;42558;52.388;13.390;2022-10-22T00:30:25;25.84;;;15.96;;
56680;SDS011;42558;52.388;13.390;2022-10-22T00:32:54;24.13;;;15.39;;
56680;SDS011;42558;52.388;13.390;2022-10-22T00:35:24;22.99;;;14.63;;
56680;SDS011;42558;52.388;13.390;2022-10-22T00:37:54;26.22;;;15.58;;
56680;SDS011;42558;52.388;13.390;2022-10-22T00:40:24;22.61;;;13.68;;
56680;SDS011;42558;52.388;13.390;2022-10-22T00:42:54;24.70;;;15.20;;
56680;SDS011;42558;52.388;13.390;2022-10-22T00:45:25;24.89;;;16.15;;
56680;SDS011;42558;52.388;13.390;2022-10-22T00:48:05;24.13;;;16.15;;
56680;SDS011;42558;52.388;13.390;2022-10-22T00:50:41;23.94;;;15.58;;
56680;SDS011;42558;52.388;13.390;2022-10-22T00:53:21;24.70;;;15.20;;
56680;SDS011;42558;52.388;13.390;2022-10-22T00:56:01;26.60;;;15.96;;
56680;SDS011;42558;52.388;13.390;2022-10-22T00:58:36;26.60;;;17.86;;
56680;SDS011;42558;52.388;13.390;2022-10-22T01:01:15;30.97;;;18.81;;
56680;SDS011;42558;52.388;13.390;2022-10-22T01:03:48;30.40;;;19.57;;
56680;SDS011;42558;52.388;13.390;2022-10-22T01:06:36;26.79;;;17.67;;
56680;SDS011;42558;52.388;13.390;2022-10-22T01:17:59;30.78;;;20.33;;
56680;SDS011;42558;52.388;13.390;2022-10-22T01:24:14;28.88;;;18.62;;
56680;SDS011;42558;52.388;13.390;2022-10-22T01:27:29;29.07;;;18.81;;
56680;SDS011;42558;52.388;13.390;2022-10-22T01:30:13;27.74;;;18.81;;
56680;SDS011;42558;52.388;13.390;2022-10-22T01:32:50;32.87;;;20.52;;
56680;SDS011;42558;52.388;13.390;2022-10-22T01:35:30;26.41;;;17.67;;
56680;SDS011;42558;52.388;13.390;2022-10-22T01:38:05;27.55;;;18.62;;
56680;SDS011;42558;52.388;13.390;2022-10-22T01:40:40;33.06;;;19.95;;
56680;SDS011;42558;52.388;13.390;2022-10-22T01:43:11;29.26;;;19.19;;
56680;SDS011;42558;52.388;13.390;2022-10-22T01:45:51;25.27;;;17.67;;
56680;SDS011;42558;52.388;13.390;2022-10-22T01:54:35;32.68;;;19.57;;
56680;SDS011;42558;52.388;13.390;2022-10-22T02:00:12;31.73;;;18.43;;
56680;SDS011;42558;52.388;13.390;2022-10-22T02:02:56;28.12;;;18.62;;
56680;SDS011;42558;52.388;13.390;2022-10-22T02:05:46;26.79;;;16.53;;
56680;SDS011;42558;52.388;13.390;2022-10-22T02:08:27;25.46;;;17.29;;
56680;SDS011;42558;52.388;13.390;2022-10-22T02:11:01;27.74;;;17.29;;
56680;SDS011;42558;52.388;13.390;2022-10-22T02:13:40;28.69;;;19.57;;
56680;SDS011;42558;52.388;13.390;2022-10-22T02:16:20;25.65;;;16.91;;
56680;SDS011;42558;52.388;13.390;2022-10-22T02:18:57;26.03;;;17.67;;
56680;SDS011;42558;52.388;13.390;2022-10-22T02:21:30;31.16;;;16.72;;
56680;SDS011;42558;52.388;13.390;2022-10-22T02:24:00;26.41;;;17.86;;
56680;SDS011;42558;52.388;13.390;2022-10-22T02:26:53;31.73;;;19.95;;
56680;SDS011;42558;52.388;13.390;2022-10-22T02:29:44;30.97;;;19.38;;
56680;SDS011;42558;52.388;13.390;2022-10-22T02:32:22;27.74;;;18.05;;
56680;SDS011;42558;52.388;13.390;2022-10-22T02:34:58;27.17;;;18.43;;
56680;SDS011;42558;52.388;13.390;2022-10-22T02:37:31;31.54;;;19.57;;
56680;SDS011;42558;52.388;13.390;2022-10-22T02:40:01;30.40;;;19.19;;
56680;SDS011;42558;52.388;13.390;2022-10-22T02:42:33;27.55;;;18.05;;
56680;SDS011;42558;52.388;13.390;2022-10-22T02:45:05;30.40;;;18.62;;
56680;SDS011;42558;52.388;13.390;2022-10-22T02:47:35;27.36;;;18.05;;
56680;SDS011;42558;52.388;13.390;2022-10-22T02:50:06;31.35;;;19.38;;
56680;SDS011;42558;52.388;13.390;2022-10-22T02:52:39;30.78;;;19.38;;
56680;SDS011;42558;52.388;13.390;2022-10-22T02:55:09;28.12;;;16.72;;
56680;SDS011;42558;52.388;13.390;2022-10-22T02:57:39;28.31;;;17.67;;
56680;SDS011;42558;52.388;13.390;2022-10-22T03:00:11;26.98;;;18.24;;
56680;SDS011;42558;52.388;13.390;2022-10-22T03:02:41;30.59;;;18.81;;
56680;SDS011;42558;52.388;13.390;2022-10-22T03:05:11;25.46;;;16.15;;
56680;SDS011;42558;52.388;13.390;2022-10-22T03:07:42;30.21;;;17.48;;
56680;SDS011;42558;52.388;13.390;2022-10-22T03:10:12;30.21;;;17.10;;
56680;SDS011;42558;52.388;13.390;2022-10-22T03:12:42;28.31;;;17.67;;
56680;SDS011;42558;52.388;13.390;2022-10-22T03:15:12;24.89;;;16.15;;
56680;SDS011;42558;52.388;13.390;2022-10-22T03:17:42;26.41;;;16.72;;
56680;SDS011;42558;52.388;13.390;2022-10-22T03:20:12;26.41;;;16.53;;
56680;SDS011;42558;52.388;13.390;2022-10-22T03:22:42;26.79;;;16.91;;
56680;SDS011;42558;52.388;13.390;2022-10-22T03:25:16;24.89;;;16.15;;
56680;SDS011;42558;52.388;13.390;2022-10-22T03:27:51;23.37;;;15.39;;
56680;SDS011;42558;52.388;13.390;2022-10-22T03:30:22;25.46;;;16.15;;
56680;SDS011;42558;52.388;13.390;2022-10-22T03:32:52;28.50;;;16.34;;
56680;SDS011;42558;52.388;13.390;2022-10-22T03:35:22;27.17;;;16.72;;
56680;SDS011;42558;52.388;13.390;2022-10-22T03:37:53;28.31;;;17.86;;
56680;SDS011;42558;52.388;13.390;2022-10-22T03:40:22;26.41;;;16.72;;
56680;SDS011;42558;52.388;13.390;2022-10-22T03:42:52;24.89;;;15.58;;
56680;SDS011;42558;52.388;13.390;2022-10-22T03:45:22;26.22;;;16.15;;
56680;SDS011;42558;52.388;13.390;2022-10-22T03:47:52;29.64;;;17.67;;
56680;SDS011;42558;52.388;13.390;2022-10-22T03:50:21;27.17;;;17.67;;
56680;SDS011;42558;52.388;13.390;2022-10-22T03:52:51;28.69;;;18.05;;
56680;SDS011;42558;52.388;13.390;2022-10-22T03:55:22;25.84;;;16.15;;
56680;SDS011;42558;52.388;13.390;2022-10-22T03:57:52;26.79;;;16.34;;
56680;SDS011;42558;52.388;13.390;2022-10-22T04:00:22;26.22;;;16.72;;
56680;SDS011;42558;52.388;13.390;2022-10-22T04:02:52;28.12;;;16.91;;
56680;SDS011;42558;52.388;13.390;2022-10-22T04:05:21;28.50;;;17.86;;
56680;SDS011;42558;52.388;13.390;2022-10-22T04:07:51;30.02;;;17.29;;
56680;SDS011;42558;52.388;13.390;2022-10-22T04:10:21;31.54;;;18.43;;
56680;SDS011;42558;52.388;13.390;2022-10-22T04:12:51;29.26;;;18.24;;
56680;SDS011;42558;52.388;13.390;2022-10-22T04:15:21;29.83;;;18.05;;
56680;SDS011;42558;52.388;13.390;2022-10-22T04:17:51;30.97;;;19.57;;
56680;SDS011;42558;52.388;13.390;2022-10-22T04:20:21;28.31;;;16.72;;
56680;SDS011;42558;52.388;13.390;2022-10-22T04:22:50;27.36;;;16.91;;
56680;SDS011;42558;52.388;13.390;2022-10-22T04:25:20;29.07;;;18.24;;
56680;SDS011;42558;52.388;13.390;2022-10-22T04:27:50;29.83;;;18.05;;
56680;SDS011;42558;52.388;13.390;2022-10-22T04:30:20;29.26;;;17.86;;
56680;SDS011;42558;52.388;13.390;2022-10-22T04:32:49;28.12;;;17.67;;
56680;SDS011;42558;52.388;13.390;2022-10-22T04:35:19;26.03;;;17.10;;
56680;SDS011;42558;52.388;13.390;2022-10-22T04:37:50;31.54;;;18.81;;
56680;SDS011;42558;52.388;13.390;2022-10-22T04:40:20;28.69;;;19.00;;
56680;SDS011;42558;52.388;13.390;2022-10-22T04:42:50;31.73;;;18.43;;
56680;SDS011;42558;52.388;13.390;2022-10-22T04:45:19;29.45;;;17.67;;
56680;SDS011;42558;52.388;13.390;2022-10-22T04:47:49;27.17;;;16.34;;
56680;SDS011;42558;52.388;13.390;2022-10-22T04:50:19;30.40;;;18.05;;
56680;SDS011;42558;52.388;13.390;2022-10-22T04:52:49;29.07;;;16.91;;
56680;SDS011;42558;52.388;13.390;2022-10-22T04:55:19;27.17;;;16.72;;
56680;SDS011;42558;52.388;13.390;2022-10-22T04:57:49;22.80;;;15.58;;
56680;SDS011;42558;52.388;13.390;2022-10-22T05:00:19;25.08;;;17.67;;
56680;SDS011;42558;52.388;13.390;2022-10-22T05:02:49;26.03;;;16.72;;
56680;SDS011;42558;52.388;13.390;2022-10-22T05:05:19;25.08;;;16.91;;
56680;SDS011;42558;52.388;13.390;2022-10-22T05:07:52;24.89;;;14.82;;
56680;SDS011;42558;52.388;13.390;2022-10-22T05:10:20;26.03;;;16.91;;
56680;SDS011;42558;52.388;13.390;2022-10-22T05:12:49;23.94;;;16.15;;
56680;SDS011;42558;52.388;13.390;2022-10-22T05:15:19;28.12;;;17.67;;
56680;SDS011;42558;52.388;13.390;2022-10-22T05:17:49;25.46;;;16.53;;
56680;SDS011;42558;52.388;13.390;2022-10-22T05:20:19;25.27;;;14.25;;
56680;SDS011;42558;52.388;13.390;2022-10-22T05:22:48;23.37;;;15.77;;
56680;SDS011;42558;52.388;13.390;2022-10-22T05:25:18;22.80;;;14.44;;
56680;SDS011;42558;52.388;13.390;2022-10-22T05:27:51;24.51;;;14.63;;
56680;SDS011;42558;52.388;13.390;2022-10-22T05:30:25;24.32;;;14.44;;
56680;SDS011;42558;52.388;13.390;2022-10-22T05:32:55;22.80;;;15.01;;
56680;SDS011;42558;52.388;13.390;2022-10-22T05:35:23;24.70;;;15.20;;
56680;SDS011;42558;52.388;13.390;2022-10-22T05:37:50;28.69;;;16.53;;
56680;SDS011;42558;52.388;13.390;2022-10-22T05:40:20;24.89;;;15.01;;
56680;SDS011;42558;52.388;13.390;2022-10-22T05:42:59;25.84;;;14.63;;
56680;SDS011;42558;52.388;13.390;2022-10-22T05:45:29;25.27;;;15.39;;
56680;SDS011;42558;52.388;13.390;2022-10-22T05:47:59;26.03;;;15.20;;
56680;SDS011;42558;52.388;13.390;2022-10-22T05:50:28;24.70;;;15.39;;
56680;SDS011;42558;52.388;13.390;2022-10-22T05:52:58;28.50;;;15.77;;
56680;SDS011;42558;52.388;13.390;2022-10-22T05:55:28;23.75;;;14.44;;
56680;SDS011;42558;52.388;13.390;2022-10-22T05:57:58;23.56;;;14.82;;
56680;SDS011;42558;52.388;13.390;2022-10-22T06:00:25;22.99;;;15.77;;
56680;SDS011;42558;52.388;13.390;2022-10-22T06:02:52;25.46;;;15.39;;
56680;SDS011;42558;52.388;13.390;2022-10-22T06:05:22;22.61;;;15.58;;
56680;SDS011;42558;52.388;13.390;2022-10-22T06:07:52;24.51;;;15.20;;
56680;SDS011;42558;52.388;13.390;2022-10-22T06:10:22;22.23;;;14.63;;
56680;SDS011;42558;52.388;13.390;2022-10-22T06:12:52;24.70;;;15.77;;
56680;SDS011;42558;52.388;13.390;2022-10-22T06:15:22;23.37;;;14.82;;
56680;SDS011;42558;52.388;13.390;2022-10-22T06:17:52;26.60;;;15.39;;
56680;SDS011;42558;52.388;13.390;2022-10-22T06:20:21;21.85;;;15.20;;
56680;SDS011;42558;52.388;13.390;2022-10-22T06:22:51;25.84;;;16.91;;
56680;SDS011;42558;52.388;13.390;2022-10-22T06:25:21;24.32;;;15.77;;
56680;SDS011;42558;52.388;13.390;2022-10-22T06:27:51;28.50;;;18.24;;
56680;SDS011;42558;52.388;13.390;2022-10-22T06:30:20;24.13;;;15.96;;
56680;SDS011;42558;52.388;13.390;2022-10-22T06:32:50;24.32;;;15.77;;
56680;SDS011;42558;52.388;13.390;2022-10-22T06:35:20;26.22;;;15.20;;
56680;SDS011;42558;52.388;13.390;2022-10-22T06:37:50;25.65;;;14.82;;
56680;SDS011;42558;52.388;13.390;2022-10-22T06:40:20;26.03;;;16.72;;
56680;SDS011;42558;52.388;13.390;2022-10-22T06:42:50;24.32;;;15.39;;
56680;SDS011;42558;52.388;13.390;2022-10-22T06:45:19;24.89;;;16.91;;
56680;SDS011;42558;52.388;13.390;2022-10-22T06:47:49;28.12;;;17.10;;
56680;SDS011;42558;52.388;13.390;2022-10-22T06:50:19;26.03;;;18.05;;
56680;SDS011;42558;52.388;13.390;2022-10-22T06:52:49;28.12;;;18.62;;
56680;SDS011;42558;52.388;13.390;2022-10-22T06:55:19;29.83;;;17.86;;
56680;SDS011;42558;52.388;13.390;2022-10-22T06:57:48;31.54;;;19.76;;
56680;SDS011;42558;52.388;13.390;2022-10-22T07:00:18;28.12;;;18.43;;
56680;SDS011;42558;52.388;13.390;2022-10-22T07:02:51;30.21;;;17.86;;
56680;SDS011;42558;52.388;13.390;2022-10-22T07:05:27;31.35;;;19.57;;
56680;SDS011;42558;52.388;13.390;2022-10-22T07:07:57;29.83;;;18.05;;
56680;SDS011;42558;52.388;13.390;2022-10-22T07:10:27;29.83;;;18.81;;
56680;SDS011;42558;52.388;13.390;2022-10-22T07:12:59;30.40;;;19.19;;
56680;SDS011;42558;52.388;13.390;2022-10-22T07:15:28;29.83;;;19.19;;
56680;SDS011;42558;52.388;13.390;2022-10-22T07:17:58;31.35;;;18.24;;
56680;SDS011;42558;52.388;13.390;2022-10-22T07:20:28;32.30;;;19.00;;
56680;SDS011;42558;52.388;13.390;2022-10-22T07:22:58;29.45;;;19.38;;
56680;SDS011;42558;52.388;13.390;2022-10-22T07:25:28;30.59;;;19.00;;
56680;SDS011;42558;52.388;13.390;2022-10-22T07:27:58;31.92;;;19.00;;
56680;SDS011;42558;52.388;13.390;2022-10-22T07:30:27;32.68;;;20.14;;
56680;SDS011;42558;52.388;13.390;2022-10-22T07:32:54;29.83;;;19.19;;
56680;SDS011;42558;52.388;13.390;2022-10-22T07:35:24;29.45;;;18.43;;
56680;SDS011;42558;52.388;13.390;2022-10-22T07:37:54;34.77;;;20.90;;
56680;SDS011;42558;52.388;13.390;2022-10-22T07:40:24;32.30;;;19.57;;
56680;SDS011;42558;52.388;13.390;2022-10-22T07:42:54;27.93;;;18.05;;
56680;SDS011;42558;52.388;13.390;2022-10-22T07:45:24;34.20;;;21.28;;
56680;SDS011;42558;52.388;13.390;2022-10-22T07:47:54;31.54;;;21.28;;
56680;SDS011;42558;52.388;13.390;2022-10-22T07:50:24;30.97;;;19.95;;
56680;SDS011;42558;52.388;13.390;2022-10-22T07:52:54;30.59;;;18.81;;
56680;SDS011;42558;52.388;13.390;2022-10-22T07:55:24;31.73;;;18.81;;
56680;SDS011;42558;52.388;13.390;2022-10-22T07:57:54;28.31;;;19.57;;
56680;SDS011;42558;52.388;13.390;2022-10-22T08:00:24;26.22;;;18.24;;
56680;SDS011;42558;52.388;13.390;2022-10-22T08:02:54;30.97;;;19.57;;
56680;SDS011;42558;52.388;13.390;2022-10-22T08:05:23;28.12;;;19.19;;
56680;SDS011;42558;52.388;13.390;2022-10-22T08:07:53;27.36;;;17.48;;
56680;SDS011;42558;52.388;13.390;2022-10-22T08:10:23;32.87;;;21.28;;
56680;SDS011;42558;52.388;13.390;2022-10-22T08:12:53;28.88;;;19.38;;
56680;SDS011;42558;52.388;13.390;2022-10-22T08:15:23;31.35;;;19.57;;
56680;SDS011;42558;52.388;13.390;2022-10-22T08:17:54;29.26;;;19.57;;
56680;SDS011;42558;52.388;13.390;2022-10-22T08:20:24;27.74;;;19.95;;
56680;SDS011;42558;52.388;13.390;2022-10-22T08:22:54;32.68;;;20.14;;
56680;SDS011;42558;52.388;13.390;2022-10-22T08:25:25;29.45;;;19.95;;
56680;SDS011;42558;52.388;13.390;2022-10-22T08:27:54;33.63;;;20.90;;
56680;SDS011;42558;52.388;13.390;2022-10-22T08:30:24;29.83;;;19.19;;
56680;SDS011;42558;52.388;13.390;2022-10-22T08:32:56;30.21;;;19.19;;
56680;SDS011;42558;52.388;13.390;2022-10-22T08:35:26;29.83;;;19.76;;
56680;SDS011;42558;52.388;13.390;2022-10-22T08:37:55;31.54;;;21.09;;
56680;SDS011;42558;52.388;13.390;2022-10-22T08:40:37;28.31;;;19.38;;
56680;SDS011;42558;52.388;13.390;2022-10-22T08:43:16;32.68;;;20.14;;
56680;SDS011;42558;52.388;13.390;2022-10-22T08:45:55;25.84;;;17.48;;
56680;SDS011;42558;52.388;13.390;2022-10-22T08:48:48;30.40;;;19.00;;
56680;SDS011;42558;52.388;13.390;2022-10-22T08:51:25;29.26;;;18.05;;
56680;SDS011;42558;52.388;13.390;2022-10-22T08:56:46;29.07;;;21.09;;
56680;SDS011;42558;52.388;13.390;2022-10-22T08:59:33;26.60;;;17.48;;
56680;SDS011;42558;52.388;13.390;2022-10-22T09:08:06;27.36;;;16.91;;
56680;SDS011;42558;52.388;13.390;2022-10-22T09:10:45;27.74;;;19.57;;
56680;SDS011;42558;52.388;13.390;2022-10-22T09:13:19;28.31;;;18.62;;
56680;SDS011;42558;52.388;13.390;2022-10-22T09:15:58;28.12;;;18.43;;
56680;SDS011;42558;52.388;13.390;2022-10-22T09:18:45;31.16;;;19.95;;
56680;SDS011;42558;52.388;13.390;2022-10-22T09:24:44;29.07;;;19.95;;
56680;SDS011;42558;52.388;13.390;2022-10-22T09:27:19;32.11;;;20.90;;
56680;SDS011;42558;52.388;13.390;2022-10-22T09:29:52;28.31;;;19.57;;
56680;SDS011;42558;52.388;13.390;2022-10-22T09:32:22;31.54;;;20.33;;
56680;SDS011;42558;52.388;13.390;2022-10-22T09:34:56;31.73;;;20.33;;
56680;SDS011;42558;52.388;13.390;2022-10-22T09:37:28;29.07;;;18.24;;
56680;SDS011;42558;52.388;13.390;2022-10-22T09:40:03;31.16;;;19.19;;
56680;SDS011;42558;52.388;13.390;2022-10-22T09:42:33;25.27;;;17.67;;
56680;SDS011;42558;52.388;13.390;2022-10-22T09:45:04;28.50;;;18.81;;
56680;SDS011;42558;52.388;13.390;2022-10-22T09:47:39;29.26;;;19.00;;
56680;SDS011;42558;52.388;13.390;2022-10-22T09:50:38;28.88;;;19.76;;
56680;SDS011;42558;52.388;13.390;2022-10-22T09:53:20;29.26;;;18.43;;
56680;SDS011;42558;52.388;13.390;2022-10-22T09:56:56;28.50;;;18.62;;
56680;SDS011;42558;52.388;13.390;2022-10-22T09:59:05;23.37;;;16.91;;
56680;SDS011;42558;52.388;13.390;2022-10-22T10:01:42;28.31;;;18.43;;
56680;SDS011;42558;52.388;13.390;2022-10-22T10:04:15;25.08;;;15.77;;
56680;SDS011;42558;52.388;13.390;2022-10-22T10:06:52;26.03;;;17.67;;
56680;SDS011;42558;52.388;13.390;2022-10-22T10:09:25;25.08;;;16.15;;
56680;SDS011;42558;52.388;13.390;2022-10-22T10:15:23;23.75;;;15.01;;
56680;SDS011;42558;52.388;13.390;2022-10-22T10:18:21;26.79;;;17.10;;
56680;SDS011;42558;52.388;13.390;2022-10-22T10:43:04;22.61;;;16.15;;
56680;SDS011;42558;52.388;13.390;2022-10-22T10:48:58;21.47;;;14.25;;
56680;SDS011;42558;52.388;13.390;2022-10-22T10:55:31;22.42;;;15.39;;
56680;SDS011;42558;52.388;13.390;2022-10-22T10:58:33;25.84;;;15.39;;
56680;SDS011;42558;52.388;13.390;2022-10-22T11:01:39;25.08;;;16.34;;
56680;SDS011;42558;52.388;13.390;2022-10-22T11:04:48;23.94;;;15.01;;
56680;SDS011;42558;52.388;13.390;2022-10-22T11:07:48;23.75;;;15.77;;
56680;SDS011;42558;52.388;13.390;2022-10-22T11:10:29;20.33;;;14.06;;
56680;SDS011;42558;52.388;13.390;2022-10-22T11:16:22;25.27;;;15.39;;
56680;SDS011;42558;52.388;13.390;2022-10-22T11:19:06;19.00;;;13.30;;
56680;SDS011;42558;52.388;13.390;2022-10-22T11:22:16;17.86;;;12.73;;
56680;SDS011;42558;52.388;13.390;2022-10-22T11:25:03;22.42;;;14.82;;
56680;SDS011;42558;52.388;13.390;2022-10-22T11:30:42;21.85;;;13.11;;
56680;SDS011;42558;52.388;13.390;2022-10-22T11:33:20;22.61;;;13.49;;
56680;SDS011;42558;52.388;13.390;2022-10-22T11:35:54;22.42;;;13.30;;
56680;SDS011;42558;52.388;13.390;2022-10-22T11:38:27;23.56;;;13.49;;
56680;SDS011;42558;52.388;13.390;2022-10-22T11:41:12;18.62;;;13.11;;
56680;SDS011;42558;52.388;13.390;2022-10-22T11:43:57;19.76;;;11.21;;
56680;SDS011;42558;52.388;13.390;2022-10-22T11:46:52;18.81;;;12.54;;
56680;SDS011;42558;52.388;13.390;2022-10-22T11:50:25;16.53;;;10.83;;
56680;SDS011;42558;52.388;13.390;2022-10-22T11:53:02;18.43;;;11.40;;
56680;SDS011;42558;52.388;13.390;2022-10-22T12:03:43;18.24;;;11.40;;
56680;SDS011;42558;52.388;13.390;2022-10-22T12:06:21;24.32;;;13.11;;
56680;SDS011;42558;52.388;13.390;2022-10-22T12:08:58;20.14;;;11.59;;
56680;SDS011;42558;52.388;13.390;2022-10-22T12:17:09;17.67;;;11.21;;
56680;SDS011;42558;52.388;13.390;2022-10-22T12:19:46;15.77;;;9.31;;
56680;SDS011;42558;52.388;13.390;2022-10-22T12:22:31;15.58;;;9.31;;
56680;SDS011;42558;52.388;13.390;2022-10-22T12:25:16;16.91;;;9.12;;
56680;SDS011;42558;52.388;13.390;2022-10-22T12:27:52;12.92;;;8.17;;
56680;SDS011;42558;52.388;13.390;2022-10-22T12:30:28;14.06;;;7.79;;
56680;SDS011;42558;52.388;13.390;2022-10-22T12:33:06;11.02;;;7.60;;
56680;SDS011;42558;52.388;13.390;2022-10-22T12:35:47;14.25;;;7.03;;
56680;SDS011;42558;52.388;13.390;2022-10-22T12:38:23;16.15;;;7.03;;
56680;SDS011;42558;52.388;13.390;2022-10-22T12:40:55;14.44;;;6.46;;
56680;SDS011;42558;52.388;13.390;2022-10-22T12:43:27;10.64;;;5.89;;
56680;SDS011;42558;52.388;13.390;2022-10-22T12:45:59;8.74;;;4.37;;
56680;SDS011;42558;52.388;13.390;2022-10-22T12:48:31;12.16;;;5.32;;
56680;SDS011;42558;52.388;13.390;2022-10-22T12:51:08;10.64;;;5.13;;
56680;SDS011;42558;52.388;13.390;2022-10-22T12:53:46;9.50;;;5.13;;
56680;SDS011;42558;52.388;13.390;2022-10-22T12:56:24;10.45;;;5.32;;
56680;SDS011;42558;52.388;13.390;2022-10-22T12:59:00;10.45;;;4.56;;
56680;SDS011;42558;52.388;13.390;2022-10-22T13:01:52;12.54;;;4.94;;
56680;SDS011;42558;52.388;13.390;2022-10-22T13:04:35;15.20;;;5.13;;
56680;SDS011;42558;52.388;13.390;2022-10-22T13:12:34;11.59;;;3.99;;
56680;SDS011;42558;52.388;13.390;2022-10-22T13:18:05;13.30;;;4.75;;
56680;SDS011;42558;52.388;13.390;2022-10-22T13:20:56;14.63;;;4.56;;
56680;SDS011;42558;52.388;13.390;2022-10-22T13:23:32;9.69;;;3.61;;
56680;SDS011;42558;52.388;13.390;2022-10-22T13:26:12;11.02;;;4.56;;
56680;SDS011;42558;52.388;13.390;2022-10-22T13:28:50;12.54;;;4.18;;
56680;SDS011;42558;52.388;13.390;2022-10-22T13:31:25;13.68;;;4.18;;
56680;SDS011;42558;52.388;13.390;2022-10-22T13:34:02;10.83;;;3.99;;
56680;SDS011;42558;52.388;13.390;2022-10-22T13:36:40;13.30;;;3.99;;
56680;SDS011;42558;52.388;13.390;2022-10-22T13:39:28;8.74;;;4.37;;
56680;SDS011;42558;52.388;13.390;2022-10-22T13:41:58;9.88;;;3.42;;
56680;SDS011;42558;52.388;13.390;2022-10-22T13:44:28;15.01;;;4.18;;
56680;SDS011;42558;52.388;13.390;2022-10-22T13:46:58;11.02;;;3.99;;
56680;SDS011;42558;52.388;13.390;2022-10-22T13:49:27;8.93;;;4.37;;
56680;SDS011;42558;52.388;13.390;2022-10-22T13:51:57;7.79;;;3.80;;
56680;SDS011;42558;52.388;13.390;2022-10-22T13:54:29;10.26;;;3.80;;
56680;SDS011;42558;52.388;13.390;2022-10-22T13:56:59;8.93;;;3.42;;
56680;SDS011;42558;52.388;13.390;2022-10-22T13:59:29;9.88;;;3.99;;
56680;SDS011;42558;52.388;13.390;2022-10-22T14:01:56;12.73;;;3.80;;
56680;SDS011;42558;52.388;13.390;2022-10-22T14:04:24;8.17;;;3.99;;
56680;SDS011;42558;52.388;13.390;2022-10-22T14:06:54;11.40;;;3.99;;
56680;SDS011;42558;52.388;13.390;2022-10-22T14:09:28;10.64;;;3.42;;
56680;SDS011;42558;52.388;13.390;2022-10-22T14:11:55;11.97;;;4.18;;
56680;SDS011;42558;52.388;13.390;2022-10-22T14:14:25;11.02;;;3.80;;
56680;SDS011;42558;52.388;13.390;2022-10-22T14:16:55;10.45;;;4.37;;
56680;SDS011;42558;52.388;13.390;2022-10-22T14:19:24;8.93;;;3.42;;
56680;SDS011;42558;52.388;13.390;2022-10-22T14:21:54;12.54;;;3.61;;
56680;SDS011;42558;52.388;13.390;2022-10-22T14:24:24;11.59;;;3.42;;
56680;SDS011;42558;52.388;13.390;2022-10-22T14:26:54;9.31;;;3.42;;
56680;SDS011;42558;52.388;13.390;2022-10-22T14:29:24;11.02;;;3.61;;
56680;SDS011;42558;52.388;13.390;2022-10-22T14:31:54;9.88;;;3.61;;
56680;SDS011;42558;52.388;13.390;2022-10-22T14:34:24;10.45;;;3.61;;
56680;SDS011;42558;52.388;13.390;2022-10-22T14:36:54;9.12;;;3.23;;
56680;SDS011;42558;52.388;13.390;2022-10-22T14:39:24;10.45;;;3.42;;
56680;SDS011;42558;52.388;13.390;2022-10-22T14:41:53;9.31;;;4.56;;
56680;SDS011;42558;52.388;13.390;2022-10-22T14:44:23;9.69;;;3.80;;
56680;SDS011;42558;52.388;13.390;2022-10-22T14:46:53;9.50;;;3.23;;
56680;SDS011;42558;52.388;13.390;2022-10-22T14:49:24;9.50;;;3.23;;
56680;SDS011;42558;52.388;13.390;2022-10-22T14:51:53;11.02;;;3.23;;
56680;SDS011;42558;52.388;13.390;2022-10-22T14:54:23;10.45;;;3.04;;
56680;SDS011;42558;52.388;13.390;2022-10-22T14:56:53;9.69;;;3.04;;
56680;SDS011;42558;52.388;13.390;2022-10-22T14:59:23;15.77;;;3.23;;
56680;SDS011;42558;52.388;13.390;2022-10-22T15:01:53;18.05;;;2.85;;
56680;SDS011;42558;52.388;13.390;2022-10-22T15:04:23;11.21;;;3.80;;
56680;SDS011;42558;52.388;13.390;2022-10-22T15:06:54;16.72;;;4.37;;
56680;SDS011;42558;52.388;13.390;2022-10-22T15:09:24;9.69;;;3.61;;
56680;SDS011;42558;52.388;13.390;2022-10-22T15:11:54;9.12;;;2.85;;
56680;SDS011;42558;52.388;13.390;2022-10-22T15:14:24;13.11;;;3.99;;
56680;SDS011;42558;52.388;13.390;2022-10-22T15:16:54;12.54;;;3.80;;
56680;SDS011;42558;52.388;13.390;2022-10-22T15:19:24;8.17;;;3.61;;
56680;SDS011;42558;52.388;13.390;2022-10-22T15:21:54;8.36;;;3.23;;
56680;SDS011;42558;52.388;13.390;2022-10-22T15:24:24;11.02;;;4.37;;
56680;SDS011;42558;52.388;13.390;2022-10-22T15:26:54;7.60;;;2.85;;
56680;SDS011;42558;52.388;13.390;2022-10-22T15:29:24;8.74;;;3.42;;
56680;SDS011;42558;52.388;13.390;2022-10-22T15:31:55;11.21;;;3.80;;
56680;SDS011;42558;52.388;13.390;2022-10-22T15:34:34;7.98;;;3.61;;
56680;SDS011;42558;52.388;13.390;2022-10-22T15:37:06;13.30;;;3.42;;
56680;SDS011;42558;52.388;13.390;2022-10-22T15:39:38;14.06;;;3.80;;
56680;SDS011;42558;52.388;13.390;2022-10-22T15:42:10;8.93;;;3.42;;
56680;SDS011;42558;52.388;13.390;2022-10-22T15:44:45;12.16;;;3.99;;
56680;SDS011;42558;52.388;13.390;2022-10-22T15:47:15;14.06;;;4.18;;
56680;SDS011;42558;52.388;13.390;2022-10-22T15:49:45;15.20;;;4.75;;
56680;SDS011;42558;52.388;13.390;2022-10-22T15:52:16;10.83;;;4.37;;
56680;SDS011;42558;52.388;13.390;2022-10-22T15:54:46;10.83;;;4.37;;
56680;SDS011;42558;52.388;13.390;2022-10-22T15:57:16;10.45;;;3.80;;
56680;SDS011;42558;52.388;13.390;2022-10-22T15:59:46;11.59;;;4.37;;
56680;SDS011;42558;52.388;13.390;2022-10-22T16:02:18;8.93;;;3.99;;
56680;SDS011;42558;52.388;13.390;2022-10-22T16:04:48;11.40;;;4.18;;
56680;SDS011;42558;52.388;13.390;2022-10-22T16:07:18;9.69;;;3.99;;
56680;SDS011;42558;52.388;13.390;2022-10-22T16:09:56;14.63;;;3.99;;
56680;SDS011;42558;52.388;13.390;2022-10-22T16:12:28;8.36;;;3.42;;
56680;SDS011;42558;52.388;13.390;2022-10-22T16:14:58;11.59;;;4.18;;
56680;SDS011;42558;52.388;13.390;2022-10-22T16:17:28;12.92;;;3.99;;
56680;SDS011;42558;52.388;13.390;2022-10-22T16:19:57;15.39;;;3.42;;
56680;SDS011;42558;52.388;13.390;2022-10-22T16:22:27;12.92;;;3.99;;
56680;SDS011;42558;52.388;13.390;2022-10-22T16:24:57;16.15;;;4.94;;